sensor_id;sensor_type;location;lat;lon;timestamp;P1;durP1;ratioP1;P2;durP2;ratioP2
74650;SDS011;63169;46.042;14.592;2023-08-12T00:00:45;4.60;;;4.28;;
74650;SDS011;63169;46.042;14.592;2023-08-12T00:03:11;5.15;;;4.75;;
74650;SDS011;63169;46.042;14.592;2023-08-12T00:05:37;5.47;;;4.97;;
74650;SDS011;63169;46.042;14.592;2023-08-12T00:10:28;6.32;;;4.65;;
74650;SDS011;63169;46.042;14.592;2023-08-12T00:12:53;5.05;;;3.65;;
74650;SDS011;63169;46.042;14.592;2023-08-12T00:15:19;3.88;;;3.58;;
74650;SDS011;63169;46.042;14.592;2023-08-12T00:17:44;4.45;;;3.97;;
74650;SDS011;63169;46.042;14.592;2023-08-12T00:20:10;3.92;;;3.53;;
74650;SDS011;63169;46.042;14.592;2023-08-12T00:22:36;5.20;;;4.35;;
74650;SDS011;63169;46.042;14.592;2023-08-12T00:25:02;3.97;;;3.55;;
74650;SDS011;63169;46.042;14.592;2023-08-12T00:27:28;5.00;;;4.13;;
74650;SDS011;63169;46.042;14.592;2023-08-12T00:29:53;1.92;;;1.20;;
74650;SDS011;63169;46.042;14.592;2023-08-12T00:32:18;4.20;;;3.60;;
74650;SDS011;63169;46.042;14.592;2023-08-12T00:34:44;4.63;;;4.22;;
74650;SDS011;63169;46.042;14.592;2023-08-12T00:37:09;4.28;;;3.88;;
74650;SDS011;63169;46.042;14.592;2023-08-12T00:39:35;4.60;;;4.20;;
74650;SDS011;63169;46.042;14.592;2023-08-12T00:42:00;4.25;;;3.80;;
74650;SDS011;63169;46.042;14.592;2023-08-12T00:44:25;2.92;;;0.63;;
74650;SDS011;63169;46.042;14.592;2023-08-12T00:46:51;4.60;;;4.20;;
74650;SDS011;63169;46.042;14.592;2023-08-12T00:49:16;5.13;;;4.72;;
74650;SDS011;63169;46.042;14.592;2023-08-12T00:51:42;5.82;;;5.35;;
74650;SDS011;63169;46.042;14.592;2023-08-12T00:54:10;3.85;;;2.22;;
74650;SDS011;63169;46.042;14.592;2023-08-12T00:56:38;5.85;;;4.43;;
74650;SDS011;63169;46.042;14.592;2023-08-12T00:59:04;3.40;;;1.45;;
74650;SDS011;63169;46.042;14.592;2023-08-12T01:01:32;4.22;;;3.72;;
74650;SDS011;63169;46.042;14.592;2023-08-12T01:03:58;4.22;;;2.20;;
74650;SDS011;63169;46.042;14.592;2023-08-12T01:06:24;5.85;;;4.47;;
74650;SDS011;63169;46.042;14.592;2023-08-12T01:08:49;5.20;;;4.70;;
74650;SDS011;63169;46.042;14.592;2023-08-12T01:11:24;4.85;;;4.18;;
74650;SDS011;63169;46.042;14.592;2023-08-12T01:16:21;7.05;;;6.55;;
74650;SDS011;63169;46.042;14.592;2023-08-12T01:18:47;4.97;;;4.57;;
74650;SDS011;63169;46.042;14.592;2023-08-12T01:21:17;3.78;;;2.00;;
74650;SDS011;63169;46.042;14.592;2023-08-12T01:23:46;6.43;;;5.90;;
74650;SDS011;63169;46.042;14.592;2023-08-12T01:26:11;4.57;;;4.18;;
74650;SDS011;63169;46.042;14.592;2023-08-12T01:28:37;4.95;;;4.55;;
74650;SDS011;63169;46.042;14.592;2023-08-12T01:33:42;5.15;;;4.85;;
74650;SDS011;63169;46.042;14.592;2023-08-12T01:36:18;3.17;;;1.52;;
74650;SDS011;63169;46.042;14.592;2023-08-12T01:38:44;4.25;;;3.67;;
74650;SDS011;63169;46.042;14.592;2023-08-12T01:41:12;5.05;;;4.63;;
74650;SDS011;63169;46.042;14.592;2023-08-12T01:43:39;4.70;;;4.25;;
74650;SDS011;63169;46.042;14.592;2023-08-12T01:48:30;4.32;;;3.92;;
74650;SDS011;63169;46.042;14.592;2023-08-12T01:50:55;5.38;;;4.97;;
74650;SDS011;63169;46.042;14.592;2023-08-12T01:53:21;3.33;;;1.45;;
74650;SDS011;63169;46.042;14.592;2023-08-12T01:55:47;3.65;;;3.35;;
74650;SDS011;63169;46.042;14.592;2023-08-12T01:58:13;5.32;;;4.45;;
74650;SDS011;63169;46.042;14.592;2023-08-12T02:00:39;4.75;;;4.13;;
74650;SDS011;63169;46.042;14.592;2023-08-12T02:03:04;4.15;;;3.75;;
74650;SDS011;63169;46.042;14.592;2023-08-12T02:05:30;4.85;;;4.45;;
74650;SDS011;63169;46.042;14.592;2023-08-12T02:07:55;3.35;;;2.10;;
74650;SDS011;63169;46.042;14.592;2023-08-12T02:10:20;3.35;;;2.92;;
74650;SDS011;63169;46.042;14.592;2023-08-12T02:12:46;4.10;;;3.78;;
74650;SDS011;63169;46.042;14.592;2023-08-12T02:15:11;4.20;;;3.45;;
74650;SDS011;63169;46.042;14.592;2023-08-12T02:17:36;3.78;;;3.35;;
74650;SDS011;63169;46.042;14.592;2023-08-12T02:20:02;4.90;;;3.78;;
74650;SDS011;63169;46.042;14.592;2023-08-12T02:22:28;4.28;;;3.97;;
74650;SDS011;63169;46.042;14.592;2023-08-12T02:24:54;5.35;;;3.28;;
74650;SDS011;63169;46.042;14.592;2023-08-12T02:27:19;4.25;;;3.95;;
74650;SDS011;63169;46.042;14.592;2023-08-12T02:29:45;3.33;;;1.60;;
74650;SDS011;63169;46.042;14.592;2023-08-12T02:32:10;4.10;;;3.63;;
74650;SDS011;63169;46.042;14.592;2023-08-12T02:34:35;4.57;;;4.25;;
74650;SDS011;63169;46.042;14.592;2023-08-12T02:37:01;4.50;;;4.10;;
74650;SDS011;63169;46.042;14.592;2023-08-12T02:39:26;4.68;;;4.03;;
74650;SDS011;63169;46.042;14.592;2023-08-12T02:41:51;4.00;;;3.55;;
74650;SDS011;63169;46.042;14.592;2023-08-12T02:44:17;2.80;;;1.55;;
74650;SDS011;63169;46.042;14.592;2023-08-12T02:46:42;4.15;;;3.70;;
74650;SDS011;63169;46.042;14.592;2023-08-12T02:49:07;5.13;;;3.92;;
74650;SDS011;63169;46.042;14.592;2023-08-12T02:51:33;5.13;;;4.60;;
74650;SDS011;63169;46.042;14.592;2023-08-12T02:53:58;4.47;;;2.05;;
74650;SDS011;63169;46.042;14.592;2023-08-12T02:56:24;5.28;;;4.78;;
74650;SDS011;63169;46.042;14.592;2023-08-12T02:58:49;5.30;;;4.80;;
74650;SDS011;63169;46.042;14.592;2023-08-12T03:01:14;4.72;;;4.35;;
74650;SDS011;63169;46.042;14.592;2023-08-12T03:03:40;4.50;;;4.10;;
74650;SDS011;63169;46.042;14.592;2023-08-12T03:06:06;4.57;;;4.13;;
74650;SDS011;63169;46.042;14.592;2023-08-12T03:08:31;5.20;;;4.75;;
74650;SDS011;63169;46.042;14.592;2023-08-12T03:11:00;3.55;;;3.10;;
74650;SDS011;63169;46.042;14.592;2023-08-12T03:13:26;3.85;;;3.53;;
74650;SDS011;63169;46.042;14.592;2023-08-12T03:15:52;3.72;;;3.33;;
74650;SDS011;63169;46.042;14.592;2023-08-12T03:18:18;4.25;;;3.92;;
74650;SDS011;63169;46.042;14.592;2023-08-12T03:20:43;4.75;;;4.35;;
74650;SDS011;63169;46.042;14.592;2023-08-12T03:23:08;3.95;;;3.55;;
74650;SDS011;63169;46.042;14.592;2023-08-12T03:25:34;6.68;;;6.18;;
74650;SDS011;63169;46.042;14.592;2023-08-12T03:27:59;4.88;;;4.13;;
74650;SDS011;63169;46.042;14.592;2023-08-12T03:30:24;4.78;;;4.25;;
74650;SDS011;63169;46.042;14.592;2023-08-12T03:32:51;3.88;;;3.58;;
74650;SDS011;63169;46.042;14.592;2023-08-12T03:35:17;4.43;;;4.03;;
74650;SDS011;63169;46.042;14.592;2023-08-12T03:37:42;4.78;;;4.38;;
74650;SDS011;63169;46.042;14.592;2023-08-12T03:40:07;2.83;;;1.58;;
74650;SDS011;63169;46.042;14.592;2023-08-12T03:42:33;4.40;;;4.03;;
74650;SDS011;63169;46.042;14.592;2023-08-12T03:44:58;6.18;;;5.50;;
74650;SDS011;63169;46.042;14.592;2023-08-12T03:47:24;4.68;;;3.92;;
74650;SDS011;63169;46.042;14.592;2023-08-12T03:49:49;5.38;;;4.97;;
74650;SDS011;63169;46.042;14.592;2023-08-12T03:52:15;5.05;;;4.65;;
74650;SDS011;63169;46.042;14.592;2023-08-12T03:54:40;3.75;;;3.35;;
74650;SDS011;63169;46.042;14.592;2023-08-12T03:57:06;5.55;;;5.13;;
74650;SDS011;63169;46.042;14.592;2023-08-12T03:59:31;5.22;;;4.20;;
74650;SDS011;63169;46.042;14.592;2023-08-12T04:01:56;4.30;;;2.42;;
74650;SDS011;63169;46.042;14.592;2023-08-12T04:04:22;5.72;;;5.15;;
74650;SDS011;63169;46.042;14.592;2023-08-12T04:06:48;5.72;;;4.97;;
74650;SDS011;63169;46.042;14.592;2023-08-12T04:09:16;3.95;;;3.47;;
74650;SDS011;63169;46.042;14.592;2023-08-12T04:14:07;3.85;;;3.55;;
74650;SDS011;63169;46.042;14.592;2023-08-12T04:16:33;4.55;;;4.15;;
74650;SDS011;63169;46.042;14.592;2023-08-12T04:18:58;6.00;;;3.92;;
74650;SDS011;63169;46.042;14.592;2023-08-12T04:21:24;4.32;;;3.60;;
74650;SDS011;63169;46.042;14.592;2023-08-12T04:23:49;6.45;;;5.85;;
74650;SDS011;63169;46.042;14.592;2023-08-12T04:26:14;3.90;;;3.45;;
74650;SDS011;63169;46.042;14.592;2023-08-12T04:28:40;5.35;;;3.58;;
74650;SDS011;63169;46.042;14.592;2023-08-12T04:31:06;3.63;;;1.40;;
74650;SDS011;63169;46.042;14.592;2023-08-12T04:33:32;4.47;;;4.07;;
74650;SDS011;63169;46.042;14.592;2023-08-12T04:35:58;5.38;;;3.78;;
74650;SDS011;63169;46.042;14.592;2023-08-12T04:38:23;5.00;;;4.63;;
74650;SDS011;63169;46.042;14.592;2023-08-12T04:40:49;4.78;;;4.13;;
74650;SDS011;63169;46.042;14.592;2023-08-12T04:43:14;4.97;;;4.47;;
74650;SDS011;63169;46.042;14.592;2023-08-12T04:45:39;3.40;;;1.92;;
74650;SDS011;63169;46.042;14.592;2023-08-12T04:48:05;4.05;;;3.75;;
74650;SDS011;63169;46.042;14.592;2023-08-12T04:50:33;4.13;;;3.72;;
74650;SDS011;63169;46.042;14.592;2023-08-12T04:52:59;4.65;;;4.25;;
74650;SDS011;63169;46.042;14.592;2023-08-12T04:55:25;3.50;;;1.52;;
74650;SDS011;63169;46.042;14.592;2023-08-12T04:57:51;4.70;;;4.38;;
74650;SDS011;63169;46.042;14.592;2023-08-12T05:00:16;3.92;;;1.67;;
74650;SDS011;63169;46.042;14.592;2023-08-12T05:02:42;4.55;;;3.88;;
74650;SDS011;63169;46.042;14.592;2023-08-12T05:05:08;3.50;;;1.65;;
74650;SDS011;63169;46.042;14.592;2023-08-12T05:07:33;4.70;;;4.30;;
74650;SDS011;63169;46.042;14.592;2023-08-12T05:09:59;3.30;;;2.00;;
74650;SDS011;63169;46.042;14.592;2023-08-12T05:12:24;5.28;;;4.50;;
74650;SDS011;63169;46.042;14.592;2023-08-12T05:14:50;5.88;;;5.32;;
74650;SDS011;63169;46.042;14.592;2023-08-12T05:17:15;7.20;;;6.53;;
74650;SDS011;63169;46.042;14.592;2023-08-12T05:19:40;4.38;;;3.97;;
74650;SDS011;63169;46.042;14.592;2023-08-12T05:22:06;8.02;;;4.82;;
74650;SDS011;63169;46.042;14.592;2023-08-12T05:24:31;4.78;;;3.00;;
74650;SDS011;63169;46.042;14.592;2023-08-12T05:26:56;5.13;;;4.63;;
74650;SDS011;63169;46.042;14.592;2023-08-12T05:29:22;6.05;;;5.32;;
74650;SDS011;63169;46.042;14.592;2023-08-12T05:31:47;6.93;;;5.47;;
74650;SDS011;63169;46.042;14.592;2023-08-12T05:34:12;9.00;;;6.45;;
74650;SDS011;63169;46.042;14.592;2023-08-12T05:36:38;6.40;;;5.80;;
74650;SDS011;63169;46.042;14.592;2023-08-12T05:39:03;5.07;;;2.47;;
74650;SDS011;63169;46.042;14.592;2023-08-12T05:41:29;9.60;;;5.90;;
74650;SDS011;63169;46.042;14.592;2023-08-12T05:43:54;29.30;;;18.05;;
74650;SDS011;63169;46.042;14.592;2023-08-12T05:46:20;26.95;;;19.65;;
74650;SDS011;63169;46.042;14.592;2023-08-12T05:48:45;11.57;;;7.32;;
74650;SDS011;63169;46.042;14.592;2023-08-12T05:51:11;6.05;;;5.32;;
74650;SDS011;63169;46.042;14.592;2023-08-12T05:53:36;6.10;;;5.15;;
74650;SDS011;63169;46.042;14.592;2023-08-12T05:56:01;8.30;;;6.38;;
74650;SDS011;63169;46.042;14.592;2023-08-12T05:58:27;8.30;;;7.50;;
74650;SDS011;63169;46.042;14.592;2023-08-12T06:00:52;8.93;;;5.80;;
74650;SDS011;63169;46.042;14.592;2023-08-12T06:03:17;8.00;;;6.93;;
74650;SDS011;63169;46.042;14.592;2023-08-12T06:05:46;10.27;;;7.18;;
74650;SDS011;63169;46.042;14.592;2023-08-12T06:08:12;23.23;;;13.75;;
74650;SDS011;63169;46.042;14.592;2023-08-12T06:10:37;39.97;;;19.50;;
74650;SDS011;63169;46.042;14.592;2023-08-12T06:13:03;92.20;;;62.55;;
74650;SDS011;63169;46.042;14.592;2023-08-12T06:15:28;41.60;;;24.30;;
74650;SDS011;63169;46.042;14.592;2023-08-12T06:17:54;28.58;;;14.45;;
74650;SDS011;63169;46.042;14.592;2023-08-12T06:20:19;17.00;;;11.32;;
74650;SDS011;63169;46.042;14.592;2023-08-12T06:22:45;23.90;;;13.57;;
74650;SDS011;63169;46.042;14.592;2023-08-12T06:25:10;21.73;;;10.73;;
74650;SDS011;63169;46.042;14.592;2023-08-12T06:27:36;21.55;;;13.07;;
74650;SDS011;63169;46.042;14.592;2023-08-12T06:30:01;22.73;;;13.57;;
74650;SDS011;63169;46.042;14.592;2023-08-12T06:32:26;19.45;;;13.02;;
74650;SDS011;63169;46.042;14.592;2023-08-12T06:34:52;18.38;;;11.45;;
74650;SDS011;63169;46.042;14.592;2023-08-12T06:37:17;18.80;;;13.05;;
74650;SDS011;63169;46.042;14.592;2023-08-12T06:39:42;20.10;;;13.80;;
74650;SDS011;63169;46.042;14.592;2023-08-12T06:42:08;17.15;;;10.50;;
74650;SDS011;63169;46.042;14.592;2023-08-12T06:44:33;20.48;;;14.10;;
74650;SDS011;63169;46.042;14.592;2023-08-12T06:47:01;13.57;;;11.20;;
74650;SDS011;63169;46.042;14.592;2023-08-12T06:49:27;14.32;;;11.98;;
74650;SDS011;63169;46.042;14.592;2023-08-12T06:51:52;17.63;;;14.60;;
74650;SDS011;63169;46.042;14.592;2023-08-12T06:54:17;22.25;;;16.50;;
74650;SDS011;63169;46.042;14.592;2023-08-12T06:56:43;16.65;;;13.25;;
74650;SDS011;63169;46.042;14.592;2023-08-12T06:59:08;15.70;;;11.52;;
74650;SDS011;63169;46.042;14.592;2023-08-12T07:01:34;22.25;;;13.90;;
74650;SDS011;63169;46.042;14.592;2023-08-12T07:03:59;17.85;;;12.00;;
74650;SDS011;63169;46.042;14.592;2023-08-12T07:06:24;16.38;;;7.35;;
74650;SDS011;63169;46.042;14.592;2023-08-12T07:08:50;12.77;;;10.85;;
74650;SDS011;63169;46.042;14.592;2023-08-12T07:11:15;15.00;;;10.27;;
74650;SDS011;63169;46.042;14.592;2023-08-12T07:13:40;16.55;;;12.82;;
74650;SDS011;63169;46.042;14.592;2023-08-12T07:16:07;13.57;;;11.80;;
74650;SDS011;63169;46.042;14.592;2023-08-12T07:18:33;10.52;;;9.43;;
74650;SDS011;63169;46.042;14.592;2023-08-12T07:20:58;13.35;;;6.90;;
74650;SDS011;63169;46.042;14.592;2023-08-12T07:23:24;11.48;;;9.50;;
74650;SDS011;63169;46.042;14.592;2023-08-12T07:25:50;13.18;;;9.32;;
74650;SDS011;63169;46.042;14.592;2023-08-12T07:28:15;12.45;;;9.82;;
74650;SDS011;63169;46.042;14.592;2023-08-12T07:30:41;12.48;;;9.98;;
74650;SDS011;63169;46.042;14.592;2023-08-12T07:33:06;15.05;;;8.88;;
74650;SDS011;63169;46.042;14.592;2023-08-12T07:35:32;10.60;;;9.50;;
74650;SDS011;63169;46.042;14.592;2023-08-12T07:37:57;13.35;;;9.18;;
74650;SDS011;63169;46.042;14.592;2023-08-12T07:40:23;10.50;;;9.43;;
74650;SDS011;63169;46.042;14.592;2023-08-12T07:42:48;7.43;;;4.93;;
74650;SDS011;63169;46.042;14.592;2023-08-12T07:45:13;10.25;;;8.32;;
74650;SDS011;63169;46.042;14.592;2023-08-12T07:47:39;8.48;;;6.38;;
74650;SDS011;63169;46.042;14.592;2023-08-12T07:52:30;11.18;;;9.48;;
74650;SDS011;63169;46.042;14.592;2023-08-12T07:54:55;9.57;;;8.07;;
74650;SDS011;63169;46.042;14.592;2023-08-12T07:59:49;11.40;;;7.88;;
74650;SDS011;63169;46.042;14.592;2023-08-12T08:02:17;9.77;;;8.77;;
74650;SDS011;63169;46.042;14.592;2023-08-12T08:04:42;8.15;;;6.55;;
74650;SDS011;63169;46.042;14.592;2023-08-12T08:09:33;10.45;;;7.53;;
74650;SDS011;63169;46.042;14.592;2023-08-12T08:14:25;5.25;;;3.65;;
74650;SDS011;63169;46.042;14.592;2023-08-12T08:16:52;7.43;;;6.72;;
74650;SDS011;63169;46.042;14.592;2023-08-12T08:19:18;8.00;;;7.30;;
74650;SDS011;63169;46.042;14.592;2023-08-12T08:24:09;8.05;;;6.97;;
74650;SDS011;63169;46.042;14.592;2023-08-12T08:26:36;8.65;;;7.88;;
74650;SDS011;63169;46.042;14.592;2023-08-12T08:29:01;7.35;;;6.68;;
74650;SDS011;63169;46.042;14.592;2023-08-12T08:31:27;9.13;;;6.47;;
74650;SDS011;63169;46.042;14.592;2023-08-12T08:36:17;5.38;;;4.88;;
74650;SDS011;63169;46.042;14.592;2023-08-12T08:38:43;5.38;;;4.88;;
74650;SDS011;63169;46.042;14.592;2023-08-12T08:43:34;6.82;;;6.32;;
74650;SDS011;63169;46.042;14.592;2023-08-12T08:46:01;6.15;;;5.43;;
74650;SDS011;63169;46.042;14.592;2023-08-12T08:48:26;6.53;;;5.93;;
74650;SDS011;63169;46.042;14.592;2023-08-12T08:50:52;5.97;;;3.97;;
74650;SDS011;63169;46.042;14.592;2023-08-12T08:53:18;6.50;;;5.38;;
74650;SDS011;63169;46.042;14.592;2023-08-12T08:55:44;4.70;;;2.22;;
74650;SDS011;63169;46.042;14.592;2023-08-12T08:58:11;6.70;;;6.10;;
74650;SDS011;63169;46.042;14.592;2023-08-12T09:03:02;6.03;;;1.95;;
74650;SDS011;63169;46.042;14.592;2023-08-12T09:05:28;5.95;;;5.07;;
74650;SDS011;63169;46.042;14.592;2023-08-12T09:07:54;6.43;;;5.78;;
74650;SDS011;63169;46.042;14.592;2023-08-12T09:10:20;6.43;;;5.93;;
74650;SDS011;63169;46.042;14.592;2023-08-12T09:12:46;5.78;;;5.18;;
74650;SDS011;63169;46.042;14.592;2023-08-12T09:15:21;3.58;;;2.63;;
74650;SDS011;63169;46.042;14.592;2023-08-12T09:17:46;5.22;;;4.70;;
74650;SDS011;63169;46.042;14.592;2023-08-12T09:20:12;7.15;;;6.53;;
74650;SDS011;63169;46.042;14.592;2023-08-12T09:22:38;4.80;;;3.08;;
74650;SDS011;63169;46.042;14.592;2023-08-12T09:25:03;10.43;;;6.32;;
74650;SDS011;63169;46.042;14.592;2023-08-12T09:27:32;12.73;;;5.82;;
74650;SDS011;63169;46.042;14.592;2023-08-12T09:29:58;6.80;;;6.30;;
74650;SDS011;63169;46.042;14.592;2023-08-12T09:32:24;7.82;;;4.80;;
74650;SDS011;63169;46.042;14.592;2023-08-12T09:34:50;6.90;;;6.40;;
74650;SDS011;63169;46.042;14.592;2023-08-12T09:37:17;5.45;;;4.95;;
74650;SDS011;63169;46.042;14.592;2023-08-12T09:39:43;3.70;;;2.20;;
74650;SDS011;63169;46.042;14.592;2023-08-12T09:42:10;5.68;;;5.18;;
74650;SDS011;63169;46.042;14.592;2023-08-12T09:44:38;4.72;;;4.25;;
74650;SDS011;63169;46.042;14.592;2023-08-12T09:47:05;6.13;;;5.63;;
74650;SDS011;63169;46.042;14.592;2023-08-12T09:49:34;4.95;;;4.55;;
74650;SDS011;63169;46.042;14.592;2023-08-12T09:52:00;5.15;;;4.65;;
74650;SDS011;63169;46.042;14.592;2023-08-12T09:54:27;7.28;;;5.32;;
74650;SDS011;63169;46.042;14.592;2023-08-12T09:57:00;5.68;;;5.20;;
74650;SDS011;63169;46.042;14.592;2023-08-12T09:59:33;5.07;;;4.68;;
74650;SDS011;63169;46.042;14.592;2023-08-12T10:02:00;9.15;;;8.55;;
74650;SDS011;63169;46.042;14.592;2023-08-12T10:04:29;5.13;;;4.80;;
74650;SDS011;63169;46.042;14.592;2023-08-12T10:06:58;6.18;;;5.68;;
74650;SDS011;63169;46.042;14.592;2023-08-12T10:09:24;5.63;;;5.13;;
74650;SDS011;63169;46.042;14.592;2023-08-12T10:11:49;3.42;;;2.38;;
74650;SDS011;63169;46.042;14.592;2023-08-12T10:14:17;5.63;;;5.13;;
74650;SDS011;63169;46.042;14.592;2023-08-12T10:16:46;8.38;;;5.10;;
74650;SDS011;63169;46.042;14.592;2023-08-12T10:19:14;6.22;;;4.65;;
74650;SDS011;63169;46.042;14.592;2023-08-12T10:21:41;4.85;;;4.53;;
74650;SDS011;63169;46.042;14.592;2023-08-12T10:24:06;5.13;;;4.63;;
74650;SDS011;63169;46.042;14.592;2023-08-12T10:26:32;3.35;;;2.13;;
74650;SDS011;63169;46.042;14.592;2023-08-12T10:29:08;5.43;;;4.93;;
74650;SDS011;63169;46.042;14.592;2023-08-12T10:31:34;5.97;;;5.38;;
74650;SDS011;63169;46.042;14.592;2023-08-12T10:33:59;3.90;;;2.60;;
74650;SDS011;63169;46.042;14.592;2023-08-12T10:36:26;5.32;;;4.93;;
74650;SDS011;63169;46.042;14.592;2023-08-12T10:38:52;4.60;;;4.30;;
74650;SDS011;63169;46.042;14.592;2023-08-12T10:41:21;5.22;;;4.82;;
74650;SDS011;63169;46.042;14.592;2023-08-12T10:43:48;4.95;;;4.53;;
74650;SDS011;63169;46.042;14.592;2023-08-12T10:46:28;4.78;;;4.32;;
74650;SDS011;63169;46.042;14.592;2023-08-12T10:48:58;4.45;;;4.05;;
74650;SDS011;63169;46.042;14.592;2023-08-12T10:54:24;5.03;;;2.15;;
74650;SDS011;63169;46.042;14.592;2023-08-12T10:59:46;4.25;;;3.95;;
74650;SDS011;63169;46.042;14.592;2023-08-12T11:02:31;5.03;;;4.63;;
74650;SDS011;63169;46.042;14.592;2023-08-12T11:05:09;3.80;;;1.92;;
74650;SDS011;63169;46.042;14.592;2023-08-12T11:10:04;5.32;;;4.82;;
74650;SDS011;63169;46.042;14.592;2023-08-12T11:12:32;4.07;;;2.55;;
74650;SDS011;63169;46.042;14.592;2023-08-12T11:14:59;3.97;;;3.67;;
74650;SDS011;63169;46.042;14.592;2023-08-12T11:17:41;4.10;;;2.15;;
74650;SDS011;63169;46.042;14.592;2023-08-12T11:20:08;3.80;;;3.50;;
74650;SDS011;63169;46.042;14.592;2023-08-12T11:22:35;3.45;;;2.50;;
74650;SDS011;63169;46.042;14.592;2023-08-12T11:25:05;5.18;;;4.78;;
74650;SDS011;63169;46.042;14.592;2023-08-12T11:27:46;3.50;;;1.58;;
74650;SDS011;63169;46.042;14.592;2023-08-12T11:30:15;4.90;;;4.50;;
74650;SDS011;63169;46.042;14.592;2023-08-12T11:32:44;5.43;;;5.03;;
74650;SDS011;63169;46.042;14.592;2023-08-12T11:35:11;4.55;;;4.20;;
74650;SDS011;63169;46.042;14.592;2023-08-12T11:37:38;4.30;;;2.35;;
74650;SDS011;63169;46.042;14.592;2023-08-12T11:40:05;3.45;;;1.98;;
74650;SDS011;63169;46.042;14.592;2023-08-12T11:42:33;4.30;;;4.00;;
74650;SDS011;63169;46.042;14.592;2023-08-12T11:44:59;4.95;;;4.65;;
74650;SDS011;63169;46.042;14.592;2023-08-12T11:47:25;4.07;;;3.67;;
74650;SDS011;63169;46.042;14.592;2023-08-12T11:49:51;5.45;;;5.15;;
74650;SDS011;63169;46.042;14.592;2023-08-12T11:52:17;3.35;;;3.15;;
74650;SDS011;63169;46.042;14.592;2023-08-12T11:54:43;4.07;;;3.83;;
74650;SDS011;63169;46.042;14.592;2023-08-12T11:57:08;3.78;;;3.50;;
74650;SDS011;63169;46.042;14.592;2023-08-12T11:59:34;3.95;;;3.65;;
74650;SDS011;63169;46.042;14.592;2023-08-12T12:02:01;4.30;;;4.00;;
74650;SDS011;63169;46.042;14.592;2023-08-12T12:04:27;4.10;;;3.80;;
74650;SDS011;63169;46.042;14.592;2023-08-12T12:06:52;3.83;;;3.42;;
74650;SDS011;63169;46.042;14.592;2023-08-12T12:09:18;3.65;;;3.35;;
74650;SDS011;63169;46.042;14.592;2023-08-12T12:11:51;4.30;;;4.00;;
74650;SDS011;63169;46.042;14.592;2023-08-12T12:14:17;4.63;;;4.32;;
74650;SDS011;63169;46.042;14.592;2023-08-12T12:16:43;3.42;;;3.13;;
74650;SDS011;63169;46.042;14.592;2023-08-12T12:19:12;4.18;;;3.88;;
74650;SDS011;63169;46.042;14.592;2023-08-12T12:21:46;4.55;;;4.25;;
74650;SDS011;63169;46.042;14.592;2023-08-12T12:24:16;10.90;;;2.35;;
74650;SDS011;63169;46.042;14.592;2023-08-12T12:26:42;5.78;;;5.43;;
74650;SDS011;63169;46.042;14.592;2023-08-12T12:29:09;3.47;;;3.17;;
74650;SDS011;63169;46.042;14.592;2023-08-12T12:31:36;3.83;;;3.53;;
74650;SDS011;63169;46.042;14.592;2023-08-12T12:34:02;3.45;;;3.25;;
74650;SDS011;63169;46.042;14.592;2023-08-12T12:36:29;2.97;;;1.48;;
74650;SDS011;63169;46.042;14.592;2023-08-12T12:38:59;4.72;;;4.32;;
74650;SDS011;63169;46.042;14.592;2023-08-12T12:41:24;4.00;;;3.78;;
74650;SDS011;63169;46.042;14.592;2023-08-12T12:43:49;3.38;;;2.92;;
74650;SDS011;63169;46.042;14.592;2023-08-12T12:46:15;4.10;;;3.75;;
74650;SDS011;63169;46.042;14.592;2023-08-12T12:48:41;4.57;;;1.10;;
74650;SDS011;63169;46.042;14.592;2023-08-12T12:51:07;4.20;;;3.50;;
74650;SDS011;63169;46.042;14.592;2023-08-12T12:53:35;4.30;;;3.97;;
74650;SDS011;63169;46.042;14.592;2023-08-12T12:56:07;7.97;;;5.55;;
74650;SDS011;63169;46.042;14.592;2023-08-12T12:58:33;4.38;;;3.97;;
74650;SDS011;63169;46.042;14.592;2023-08-12T13:00:59;4.97;;;4.65;;
74650;SDS011;63169;46.042;14.592;2023-08-12T13:03:33;5.78;;;5.28;;
74650;SDS011;63169;46.042;14.592;2023-08-12T13:06:04;2.53;;;1.35;;
74650;SDS011;63169;46.042;14.592;2023-08-12T13:08:30;3.97;;;3.67;;
74650;SDS011;63169;46.042;14.592;2023-08-12T13:10:58;3.58;;;3.28;;
74650;SDS011;63169;46.042;14.592;2023-08-12T13:13:23;4.18;;;3.33;;
74650;SDS011;63169;46.042;14.592;2023-08-12T13:15:49;3.88;;;3.67;;
74650;SDS011;63169;46.042;14.592;2023-08-12T13:18:14;1.92;;;1.35;;
74650;SDS011;63169;46.042;14.592;2023-08-12T13:20:40;4.18;;;3.88;;
74650;SDS011;63169;46.042;14.592;2023-08-12T13:23:05;4.22;;;3.92;;
74650;SDS011;63169;46.042;14.592;2023-08-12T13:25:31;5.82;;;4.70;;
74650;SDS011;63169;46.042;14.592;2023-08-12T13:27:58;3.40;;;3.05;;
74650;SDS011;63169;46.042;14.592;2023-08-12T13:30:24;3.92;;;3.53;;
74650;SDS011;63169;46.042;14.592;2023-08-12T13:32:49;3.83;;;3.55;;
74650;SDS011;63169;46.042;14.592;2023-08-12T13:35:16;3.05;;;1.80;;
74650;SDS011;63169;46.042;14.592;2023-08-12T13:37:42;4.43;;;4.10;;
74650;SDS011;63169;46.042;14.592;2023-08-12T13:40:07;4.45;;;4.07;;
74650;SDS011;63169;46.042;14.592;2023-08-12T13:42:34;3.55;;;3.25;;
74650;SDS011;63169;46.042;14.592;2023-08-12T13:45:00;3.83;;;3.53;;
74650;SDS011;63169;46.042;14.592;2023-08-12T13:47:25;4.93;;;2.67;;
74650;SDS011;63169;46.042;14.592;2023-08-12T13:49:50;4.32;;;3.92;;
74650;SDS011;63169;46.042;14.592;2023-08-12T13:52:16;4.07;;;3.65;;
74650;SDS011;63169;46.042;14.592;2023-08-12T13:54:42;4.43;;;4.13;;
74650;SDS011;63169;46.042;14.592;2023-08-12T13:57:07;4.90;;;4.32;;
74650;SDS011;63169;46.042;14.592;2023-08-12T13:59:32;5.63;;;3.38;;
74650;SDS011;63169;46.042;14.592;2023-08-12T14:01:58;5.07;;;4.68;;
74650;SDS011;63169;46.042;14.592;2023-08-12T14:04:23;4.18;;;3.75;;
74650;SDS011;63169;46.042;14.592;2023-08-12T14:06:48;2.72;;;1.17;;
74650;SDS011;63169;46.042;14.592;2023-08-12T14:09:14;2.35;;;1.20;;
74650;SDS011;63169;46.042;14.592;2023-08-12T14:11:40;3.58;;;3.28;;
74650;SDS011;63169;46.042;14.592;2023-08-12T14:14:05;3.55;;;3.35;;
74650;SDS011;63169;46.042;14.592;2023-08-12T14:16:31;3.83;;;3.53;;
74650;SDS011;63169;46.042;14.592;2023-08-12T14:18:59;3.88;;;3.55;;
74650;SDS011;63169;46.042;14.592;2023-08-12T14:21:30;3.20;;;2.90;;
74650;SDS011;63169;46.042;14.592;2023-08-12T14:23:55;2.45;;;0.90;;
74650;SDS011;63169;46.042;14.592;2023-08-12T14:26:21;5.32;;;4.10;;
74650;SDS011;63169;46.042;14.592;2023-08-12T14:28:46;3.88;;;3.58;;
74650;SDS011;63169;46.042;14.592;2023-08-12T14:31:11;4.88;;;3.50;;
74650;SDS011;63169;46.042;14.592;2023-08-12T14:33:37;4.18;;;3.88;;
74650;SDS011;63169;46.042;14.592;2023-08-12T14:36:02;4.10;;;3.75;;
74650;SDS011;63169;46.042;14.592;2023-08-12T14:38:28;4.70;;;4.30;;
74650;SDS011;63169;46.042;14.592;2023-08-12T14:41:03;4.68;;;4.28;;
74650;SDS011;63169;46.042;14.592;2023-08-12T14:43:28;3.65;;;3.35;;
74650;SDS011;63169;46.042;14.592;2023-08-12T14:45:53;3.35;;;3.05;;
74650;SDS011;63169;46.042;14.592;2023-08-12T14:48:19;3.97;;;3.50;;
74650;SDS011;63169;46.042;14.592;2023-08-12T14:50:46;3.13;;;2.92;;
74650;SDS011;63169;46.042;14.592;2023-08-12T14:53:12;4.78;;;4.47;;
74650;SDS011;63169;46.042;14.592;2023-08-12T14:55:37;5.68;;;4.15;;
74650;SDS011;63169;46.042;14.592;2023-08-12T14:58:02;3.80;;;3.40;;
74650;SDS011;63169;46.042;14.592;2023-08-12T15:00:28;4.00;;;3.70;;
74650;SDS011;63169;46.042;14.592;2023-08-12T15:02:54;3.65;;;1.33;;
74650;SDS011;63169;46.042;14.592;2023-08-12T15:05:19;4.15;;;3.85;;